To NAV CANADA Home Page Login to a new session Search on AWWS site Feedback and Comments Disclaimer Vers la page française équivalente Tips FAQ What's new on the site To the Forecasts and Observations / NOTAM section To "File a Flight Plan" website Publications and other links Update of the User's profile FIC Telephone Numbers My Weather Data Folder Route Weather Data Regional Weather Data Local Weather Data To the Forecasts and Observations / NOTAM section
Request Generated 08/28/2016 at 16:32:13 UTC . Weather information available at that time is displayed.

METAR/TAF

REGINA/REGINA INTL/SK    

METAR CYQR 281600Z 31012G18KT 15SM BKN110 BKN280 17/13 A2987 RMK
AC6CI1 SLP122 DENSITY ALT 2600FT=
METAR CYQR 281500Z 30009KT 15SM BKN110 BKN280 17/12 A2984 RMK AC7CI1
CI TR SLP111 DENSITY ALT 2600FT=
METAR CYQR 281400Z 25003KT 15SM BKN130 OVC280 16/11 A2981 RMK AC6CI2
SLP099 DENSITY ALT 2500FT=

TAF CYQR 281138Z 2812/2912 14008KT P6SM BKN150
BECMG 2814/2816 30015KT SCT120
FM282000 30015KT P6SM FEW060
FM290800 34008KT P6SM SKC PROB30 2909/2912 2SM BR
RMK NXT FCST BY 281800Z=
Your time UTC time
Weather data provided by Environment Canada and NAV CANADA